createdAt,value
2019-02-28T00:09:29.068Z,11.63
2019-02-28T00:11:57.463Z,11.80
2019-02-28T00:14:27.742Z,12.17
2019-02-28T00:16:56.408Z,12.27
2019-02-28T00:19:25.043Z,11.40
2019-02-28T00:21:53.453Z,12.17
2019-02-28T00:24:21.840Z,12.80
2019-02-28T00:26:50.243Z,11.77
2019-02-28T00:29:18.640Z,13.47
2019-02-28T00:31:50.034Z,12.60
2019-02-28T00:34:17.372Z,13.23
2019-02-28T00:36:45.776Z,12.30
2019-02-28T00:39:14.167Z,12.33
2019-02-28T00:41:44.488Z,12.57
2019-02-28T00:44:12.677Z,12.53
2019-02-28T00:46:45.171Z,12.77
2019-02-28T00:49:11.281Z,13.20
2019-02-28T00:51:39.740Z,14.40
2019-02-28T00:54:08.854Z,13.03
2019-02-28T00:56:37.827Z,14.07
2019-02-28T00:59:06.206Z,14.80
2019-02-28T01:01:34.830Z,13.57
2019-02-28T01:04:03.216Z,13.30
2019-02-28T01:06:31.612Z,13.20
2019-02-28T01:09:00.005Z,14.10
2019-02-28T01:11:28.404Z,13.53
2019-02-28T01:13:58.059Z,13.60
2019-02-28T01:16:27.134Z,13.53
2019-02-28T01:18:55.549Z,12.90
2019-02-28T01:21:24.588Z,14.30
2019-02-28T01:23:52.906Z,14.20
2019-02-28T01:26:21.304Z,14.00
2019-02-28T01:28:49.762Z,14.67
2019-02-28T01:31:18.154Z,14.33
2019-02-28T01:33:46.782Z,15.90
2019-02-28T01:36:15.637Z,14.67
2019-02-28T01:38:44.651Z,14.53
2019-02-28T01:41:13.255Z,15.00
2019-02-28T01:43:41.658Z,14.57
2019-02-28T01:46:10.041Z,13.77
2019-02-28T01:48:38.445Z,13.53
2019-02-28T01:51:06.837Z,13.93
2019-02-28T01:53:35.252Z,15.50
2019-02-28T01:56:03.648Z,14.87
2019-02-28T01:58:32.036Z,14.37
2019-02-28T02:01:00.436Z,15.70
2019-02-28T02:03:28.819Z,15.47
2019-02-28T02:05:57.237Z,16.07
2019-02-28T02:08:25.626Z,15.27
2019-02-28T02:10:55.861Z,16.60
2019-02-28T02:13:24.754Z,15.27
2019-02-28T02:15:53.142Z,15.83
2019-02-28T02:18:21.547Z,14.57
2019-02-28T02:20:49.940Z,16.83
2019-02-28T02:23:18.931Z,16.50
2019-02-28T02:25:47.408Z,14.47
2019-02-28T02:28:15.791Z,16.77
2019-02-28T02:30:50.479Z,17.53
2019-02-28T02:33:15.579Z,16.03
2019-02-28T02:35:44.234Z,15.50
2019-02-28T02:38:12.596Z,14.90
2019-02-28T02:40:40.994Z,16.20
2019-02-28T02:43:09.469Z,16.10
2019-02-28T02:45:41.876Z,16.17
2019-02-28T02:48:08.189Z,16.00
2019-02-28T02:50:36.842Z,16.73
2019-02-28T02:53:06.563Z,16.97
2019-02-28T02:55:35.057Z,15.80
2019-02-28T02:58:03.684Z,16.83
2019-02-28T03:00:32.070Z,18.00
2019-02-28T03:03:00.740Z,16.13
2019-02-28T03:05:34.983Z,19.07
2019-02-28T03:07:59.872Z,17.13
2019-02-28T03:10:29.435Z,17.37
2019-02-28T03:12:57.833Z,17.37
2019-02-28T03:15:27.312Z,17.40
2019-02-28T03:17:56.095Z,18.20
2019-02-28T03:20:24.491Z,18.67
2019-02-28T03:22:52.895Z,17.23
2019-02-28T03:25:27.700Z,17.67
2019-02-28T03:27:56.450Z,19.00
2019-02-28T03:30:29.255Z,19.20
2019-02-28T03:32:52.110Z,18.63
2019-02-28T03:35:20.860Z,17.63
2019-02-28T03:37:49.318Z,19.17
2019-02-28T03:40:17.794Z,19.13
2019-02-28T03:42:46.178Z,18.30
2019-02-28T03:45:16.315Z,18.67
2019-02-28T03:47:44.698Z,18.23
2019-02-28T03:50:13.778Z,18.60
2019-02-28T03:52:44.310Z,19.60
2019-02-28T03:55:13.906Z,20.13
2019-02-28T03:57:42.336Z,19.77
2019-02-28T04:00:16.589Z,22.10
2019-02-28T04:02:45.180Z,19.90
2019-02-28T04:05:13.583Z,20.57
2019-02-28T04:07:41.961Z,19.93
2019-02-28T04:10:16.843Z,21.00
2019-02-28T04:12:45.929Z,19.27
2019-02-28T04:15:15.289Z,20.97
2019-02-28T04:17:43.693Z,20.77
2019-02-28T04:20:12.109Z,23.20
2019-02-28T04:22:40.762Z,21.20
2019-02-28T04:25:10.909Z,22.00
2019-02-28T04:27:40.404Z,20.90
2019-02-28T04:30:13.308Z,21.40
2019-02-28T04:32:42.035Z,21.10
2019-02-28T04:35:11.059Z,20.83
2019-02-28T04:37:44.926Z,21.07
2019-02-28T04:40:11.541Z,21.50
2019-02-28T04:42:40.493Z,21.00
2019-02-28T04:45:12.024Z,19.50
2019-02-28T04:47:41.566Z,20.00
2019-02-28T04:50:11.866Z,20.00
2019-02-28T04:52:46.493Z,21.43
2019-02-28T04:55:11.414Z,20.27
2019-02-28T04:57:39.796Z,20.23
2019-02-28T05:00:13.379Z,19.57
2019-02-28T05:02:41.959Z,21.70
2019-02-28T05:05:12.766Z,20.60
2019-02-28T05:07:41.474Z,19.73
2019-02-28T05:10:11.344Z,23.40
2019-02-28T05:12:41.033Z,21.33
2019-02-28T05:15:11.821Z,21.57
2019-02-28T05:17:40.310Z,21.70
2019-02-28T05:20:10.821Z,21.40
2019-02-28T05:22:40.465Z,21.93
2019-02-28T05:25:10.187Z,24.83
2019-02-28T05:27:38.584Z,23.17
2019-02-28T05:30:18.037Z,22.87
2019-02-28T05:32:44.835Z,23.27
2019-02-28T05:35:13.620Z,23.27
2019-02-28T05:37:46.714Z,23.73
2019-02-28T05:40:15.094Z,23.60
2019-02-28T05:42:43.562Z,24.70
2019-02-28T05:45:14.927Z,22.60
2019-02-28T05:47:46.653Z,24.23
2019-02-28T05:50:16.795Z,24.47
2019-02-28T05:52:43.489Z,25.70
2019-02-28T05:55:11.972Z,25.40
2019-02-28T05:57:43.431Z,25.10
2019-02-28T06:00:16.622Z,25.07
2019-02-28T06:02:45.022Z,23.97
2019-02-28T06:05:13.743Z,26.90
2019-02-28T06:07:42.519Z,24.97
2019-02-28T06:10:13.486Z,25.80
2019-02-28T06:12:43.923Z,26.90
2019-02-28T06:15:16.307Z,25.03
2019-02-28T06:17:44.726Z,23.73
2019-02-28T06:20:16.339Z,26.20
2019-02-28T06:22:44.358Z,24.73
2019-02-28T06:25:22.611Z,26.90
2019-02-28T06:27:49.129Z,28.10
2019-02-28T06:30:17.993Z,30.00
2019-02-28T06:32:46.472Z,29.80
2019-02-28T06:35:17.668Z,27.63
2019-02-28T06:37:45.438Z,26.70
2019-02-28T06:40:17.350Z,27.27
2019-02-28T06:42:46.729Z,28.00
2019-02-28T06:45:17.627Z,29.27
2019-02-28T06:47:49.629Z,29.93
2019-02-28T06:50:17.163Z,27.33
2019-02-28T06:52:45.574Z,29.50
2019-02-28T06:55:18.800Z,30.80
2019-02-28T06:57:47.298Z,30.73
2019-02-28T07:00:16.792Z,30.00
2019-02-28T07:02:45.187Z,28.37
2019-02-28T07:05:13.594Z,29.57
2019-02-28T07:07:42.000Z,30.80
2019-02-28T07:10:15.357Z,28.13
2019-02-28T07:12:43.991Z,28.03
2019-02-28T07:15:13.134Z,30.57
2019-02-28T07:17:42.719Z,29.17
2019-02-28T07:20:19.103Z,30.40
2019-02-28T07:22:47.575Z,32.40
2019-02-28T07:25:16.205Z,31.23
2019-02-28T07:27:44.921Z,31.07
2019-02-28T07:30:21.320Z,30.97
2019-02-28T07:32:49.811Z,34.47
2019-02-28T07:35:18.195Z,32.03
2019-02-28T07:37:46.952Z,33.90
2019-02-28T07:40:19.145Z,33.10
2019-02-28T07:42:47.554Z,33.50
2019-02-28T07:45:16.508Z,34.07
2019-02-28T07:47:45.160Z,34.07
2019-02-28T07:50:15.058Z,34.77
2019-02-28T07:52:43.456Z,32.60
2019-02-28T07:55:16.192Z,35.33
2019-02-28T07:57:44.646Z,33.20
2019-02-28T08:00:18.925Z,36.30
2019-02-28T08:02:47.589Z,34.10
2019-02-28T08:05:16.307Z,35.77
2019-02-28T08:07:50.484Z,34.67
2019-02-28T08:10:18.082Z,33.80
2019-02-28T08:12:46.769Z,33.70
2019-02-28T08:15:22.310Z,33.87
2019-02-28T08:17:51.124Z,34.03
2019-02-28T08:20:20.645Z,37.60
2019-02-28T08:22:49.221Z,33.13
2019-02-28T08:25:17.639Z,34.60
2019-02-28T08:27:46.366Z,31.80
2019-02-28T08:30:20.751Z,33.43
2019-02-28T08:32:49.805Z,35.50
2019-02-28T08:35:18.210Z,34.70
2019-02-28T08:37:46.958Z,33.87
2019-02-28T08:40:18.132Z,33.20
2019-02-28T08:42:46.711Z,34.70
2019-02-28T08:45:18.242Z,32.97
2019-02-28T08:47:46.638Z,33.80
2019-02-28T08:50:20.635Z,34.50
2019-02-28T08:52:51.208Z,34.87
2019-02-28T08:55:28.139Z,34.30
2019-02-28T08:57:55.719Z,33.43
2019-02-28T09:00:22.207Z,34.13
2019-02-28T09:02:52.896Z,33.87
2019-02-28T09:05:25.502Z,32.83
2019-02-28T09:07:52.071Z,33.80
2019-02-28T09:10:22.795Z,34.50
2019-02-28T09:12:51.245Z,33.47
2019-02-28T09:15:20.882Z,34.20
2019-02-28T09:17:49.988Z,32.50
2019-02-28T09:20:18.567Z,32.43
2019-02-28T09:22:46.964Z,32.70
2019-02-28T09:25:22.096Z,31.50
2019-02-28T09:27:50.255Z,34.80
2019-02-28T09:30:30.689Z,33.67
2019-02-28T09:32:59.713Z,33.03
2019-02-28T09:35:28.102Z,29.90
2019-02-28T09:37:56.556Z,31.17
2019-02-28T09:40:25.816Z,30.90
2019-02-28T09:42:55.082Z,33.33
2019-02-28T09:45:29.252Z,33.10
2019-02-28T09:48:00.746Z,31.50
2019-02-28T09:50:28.231Z,34.30
2019-02-28T09:52:56.676Z,31.60
2019-02-28T09:55:25.113Z,32.43
2019-02-28T09:57:54.958Z,34.20
2019-02-28T10:00:28.050Z,32.23
2019-02-28T10:02:56.518Z,33.33
2019-02-28T10:05:25.247Z,33.47
2019-02-28T10:07:53.699Z,32.97
2019-02-28T10:10:24.281Z,32.37
2019-02-28T10:12:52.661Z,34.63
2019-02-28T10:15:23.064Z,33.60
2019-02-28T10:17:52.241Z,34.40
2019-02-28T10:20:27.061Z,34.80
2019-02-28T10:22:53.555Z,33.53
2019-02-28T10:25:22.211Z,35.77
2019-02-28T10:27:50.978Z,34.57
2019-02-28T10:30:31.175Z,35.10
2019-02-28T10:32:54.811Z,33.13
2019-02-28T10:35:23.494Z,31.97
2019-02-28T10:37:57.325Z,34.77
2019-02-28T10:40:25.401Z,34.07
2019-02-28T10:42:53.795Z,32.33
2019-02-28T10:45:23.458Z,34.87
2019-02-28T10:47:52.145Z,35.93
2019-02-28T10:50:26.007Z,35.80
2019-02-28T10:52:54.644Z,36.17
2019-02-28T10:55:23.361Z,36.20
2019-02-28T10:57:52.626Z,36.37
2019-02-28T11:00:29.422Z,38.20
2019-02-28T11:02:59.625Z,35.20
2019-02-28T11:05:32.917Z,36.00
2019-02-28T11:08:02.628Z,37.07
2019-02-28T11:10:37.765Z,37.13
2019-02-28T11:13:15.509Z,36.30
2019-02-28T11:15:48.027Z,36.00
2019-02-28T11:18:15.210Z,38.23
2019-02-28T11:20:43.859Z,37.20
2019-02-28T11:23:14.973Z,38.80
2019-02-28T11:25:43.296Z,35.67
2019-02-28T11:28:12.578Z,36.80
2019-02-28T11:30:44.800Z,36.60
2019-02-28T11:33:13.356Z,36.17
2019-02-28T11:35:42.097Z,33.53
2019-02-28T11:38:11.889Z,35.40
2019-02-28T11:40:43.608Z,34.23
2019-02-28T11:43:10.827Z,34.30
2019-02-28T11:45:43.058Z,35.43
2019-02-28T11:48:18.919Z,36.33
2019-02-28T11:50:45.093Z,36.97
2019-02-28T11:53:13.657Z,36.03
2019-02-28T11:55:42.235Z,36.47
2019-02-28T11:58:16.621Z,36.57
2019-02-28T12:00:41.195Z,36.30
2019-02-28T12:03:09.685Z,38.67
2019-02-28T12:05:38.099Z,39.40
2019-02-28T12:08:10.439Z,36.50
2019-02-28T12:10:38.351Z,37.30
2019-02-28T12:13:06.925Z,36.87
2019-02-28T12:15:39.173Z,36.33
2019-02-28T12:18:07.689Z,35.90
2019-02-28T12:20:36.249Z,36.07
2019-02-28T12:23:04.870Z,35.20
2019-02-28T12:25:33.392Z,36.20
2019-02-28T12:28:03.918Z,34.77
2019-02-28T12:30:33.835Z,35.33
2019-02-28T12:33:02.301Z,35.97
2019-02-28T12:35:37.450Z,35.33
2019-02-28T12:38:01.613Z,35.17
2019-02-28T12:40:36.135Z,36.03
2019-02-28T12:43:08.656Z,36.10
2019-02-28T12:45:45.555Z,36.87
2019-02-28T12:48:14.597Z,36.53
2019-02-28T12:50:43.497Z,37.30
2019-02-28T12:53:12.271Z,39.40
2019-02-28T12:55:41.803Z,40.40
2019-02-28T12:58:10.180Z,41.47
2019-02-28T13:00:45.720Z,42.30
2019-02-28T13:03:19.108Z,42.77
2019-02-28T13:05:48.052Z,48.60
2019-02-28T13:08:14.623Z,52.10
2019-02-28T13:10:43.181Z,62.60
2019-02-28T13:13:11.903Z,61.67
2019-02-28T13:15:40.317Z,57.27
2019-02-28T13:18:09.470Z,56.27
2019-02-28T13:20:39.215Z,57.83
2019-02-28T13:23:07.612Z,56.80
2019-02-28T13:25:36.244Z,56.73
2019-02-28T13:28:05.973Z,55.53
2019-02-28T13:30:34.510Z,54.23
2019-02-28T13:33:03.128Z,53.70
2019-02-28T13:35:36.565Z,54.07
2019-02-28T13:38:05.029Z,80.63
2019-02-28T13:40:33.692Z,74.00
2019-02-28T13:43:02.396Z,72.80
2019-02-28T13:45:31.084Z,65.30
2019-02-28T13:47:59.954Z,59.00
2019-02-28T13:50:32.886Z,55.13
2019-02-28T13:53:03.707Z,52.23
2019-02-28T13:55:31.825Z,48.37
2019-02-28T13:58:00.601Z,49.30
2019-02-28T14:00:31.141Z,46.07
2019-02-28T14:03:09.617Z,42.20
2019-02-28T14:05:40.479Z,44.73
2019-02-28T14:08:11.280Z,40.13
2019-02-28T14:10:38.133Z,42.60
2019-02-28T14:13:07.109Z,41.47
2019-02-28T14:15:41.346Z,39.50
2019-02-28T14:18:10.937Z,37.27
2019-02-28T14:20:40.132Z,36.03
2019-02-28T14:23:09.210Z,37.40
2019-02-28T14:25:39.829Z,41.30
2019-02-28T14:28:07.803Z,39.10
2019-02-28T14:30:36.496Z,41.60
2019-02-28T14:33:05.457Z,39.70
2019-02-28T14:35:35.698Z,39.40
2019-02-28T14:38:04.443Z,39.70
2019-02-28T14:40:33.035Z,40.90
2019-02-28T14:43:01.429Z,39.40
2019-02-28T14:45:39.001Z,35.00
2019-02-28T14:48:08.785Z,35.10
2019-02-28T14:50:37.365Z,34.17
2019-02-28T14:53:06.366Z,32.00
2019-02-28T14:55:34.753Z,27.47
2019-02-28T14:58:03.312Z,25.70
2019-02-28T15:00:35.277Z,26.20
2019-02-28T15:03:03.928Z,25.23
2019-02-28T15:05:35.413Z,24.47
2019-02-28T15:08:04.070Z,22.73
2019-02-28T15:10:34.183Z,23.67
2019-02-28T15:13:04.940Z,21.60
2019-02-28T15:15:35.936Z,21.13
2019-02-28T15:18:04.058Z,20.63
2019-02-28T15:20:33.155Z,19.23
2019-02-28T15:23:02.375Z,21.20
2019-02-28T15:25:31.714Z,20.30
2019-02-28T15:28:00.244Z,20.53
2019-02-28T15:30:33.651Z,20.83
2019-02-28T15:33:01.172Z,19.93
2019-02-28T15:35:29.557Z,19.70
2019-02-28T15:37:58.018Z,20.47
2019-02-28T15:40:41.313Z,20.63
2019-02-28T15:43:09.995Z,18.07
2019-02-28T15:45:38.393Z,18.20
2019-02-28T15:48:06.806Z,17.47
2019-02-28T15:50:35.198Z,19.33
2019-02-28T15:53:03.847Z,19.57
2019-02-28T15:55:35.094Z,18.53
2019-02-28T15:58:05.905Z,19.67
2019-02-28T16:00:34.259Z,19.00
2019-02-28T16:03:02.660Z,20.33
2019-02-28T16:05:31.031Z,21.03
2019-02-28T16:07:59.489Z,20.40
2019-02-28T16:10:33.013Z,19.83
2019-02-28T16:13:01.504Z,18.10
2019-02-28T16:15:29.895Z,17.17
2019-02-28T16:17:58.527Z,16.40
2019-02-28T16:20:28.488Z,15.70
2019-02-28T16:22:57.258Z,14.40
2019-02-28T16:25:28.937Z,14.57
2019-02-28T16:27:57.417Z,15.77
2019-02-28T16:30:28.828Z,15.40
2019-02-28T16:32:56.105Z,14.70
2019-02-28T16:35:24.852Z,14.70
2019-02-28T16:37:53.236Z,14.73
2019-02-28T16:40:27.172Z,15.13
2019-02-28T16:42:55.714Z,14.80
2019-02-28T16:45:30.154Z,14.97
2019-02-28T16:48:02.769Z,14.80
2019-02-28T16:50:29.715Z,14.30
2019-02-28T16:52:58.103Z,14.50
2019-02-28T16:55:27.453Z,14.20
2019-02-28T16:57:57.014Z,15.00
2019-02-28T17:00:26.973Z,14.70
2019-02-28T17:02:55.677Z,13.93
2019-02-28T17:05:28.113Z,13.60
2019-02-28T17:07:54.804Z,13.83
2019-02-28T17:10:28.291Z,11.93
2019-02-28T17:13:04.267Z,13.50
2019-02-28T17:15:43.089Z,14.17
2019-02-28T17:18:13.111Z,14.17
2019-02-28T17:20:41.763Z,14.10
2019-02-28T17:23:10.211Z,13.70
2019-02-28T17:25:38.598Z,13.53
2019-02-28T17:28:24.799Z,13.10
2019-02-28T17:31:00.780Z,12.73
2019-02-28T17:33:29.180Z,14.10
2019-02-28T17:35:57.583Z,13.00
2019-02-28T17:38:26.199Z,14.20
2019-02-28T17:40:54.607Z,13.70
2019-02-28T17:43:24.605Z,14.20
2019-02-28T17:45:53.149Z,15.47
2019-02-28T17:48:27.455Z,14.50
2019-02-28T17:51:05.024Z,14.80
2019-02-28T17:53:44.949Z,14.60
2019-02-28T17:56:23.991Z,15.30
2019-02-28T17:59:10.122Z,14.57
2019-02-28T18:01:44.479Z,15.17
2019-02-28T18:04:27.815Z,14.83
2019-02-28T18:07:11.100Z,15.73
2019-02-28T18:09:48.133Z,17.10
2019-02-28T18:12:24.242Z,19.80
2019-02-28T18:15:01.286Z,20.10
2019-02-28T18:17:38.571Z,19.77
2019-02-28T18:20:15.859Z,18.10
2019-02-28T18:22:52.033Z,16.90
2019-02-28T18:25:29.669Z,15.90
2019-02-28T18:28:04.175Z,16.60
2019-02-28T18:30:38.734Z,16.70
2019-02-28T18:33:10.247Z,16.47
2019-02-28T18:35:37.684Z,16.00
2019-02-28T18:38:06.088Z,16.13
2019-02-28T18:40:34.538Z,16.47
2019-02-28T18:43:02.928Z,16.07
2019-02-28T18:45:31.315Z,15.83
2019-02-28T18:47:59.716Z,17.60
2019-02-28T18:50:28.130Z,16.50
2019-02-28T18:52:56.522Z,17.93
2019-02-28T18:55:34.494Z,15.63
2019-02-28T18:57:55.027Z,17.40
2019-02-28T19:00:23.613Z,18.03
2019-02-28T19:02:52.233Z,17.30
2019-02-28T19:05:20.870Z,15.77
2019-02-28T19:07:49.332Z,15.87
2019-02-28T19:10:18.811Z,16.63
2019-02-28T19:12:47.568Z,16.10
2019-02-28T19:15:16.474Z,14.73
2019-02-28T19:17:44.865Z,16.73
2019-02-28T19:20:13.520Z,15.97
2019-02-28T19:22:41.989Z,16.50
2019-02-28T19:25:12.161Z,16.70
2019-02-28T19:27:40.551Z,17.23
2019-02-28T19:30:14.117Z,16.80
2019-02-28T19:32:42.601Z,17.63
2019-02-28T19:35:11.581Z,17.70
2019-02-28T19:37:40.374Z,19.30
2019-02-28T19:40:11.959Z,19.17
2019-02-28T19:42:40.612Z,21.47
2019-02-28T19:45:27.561Z,22.20
2019-02-28T19:47:56.414Z,20.10
2019-02-28T19:50:24.842Z,21.10
2019-02-28T19:52:54.197Z,21.33
2019-02-28T19:55:22.801Z,21.73
2019-02-28T19:57:51.196Z,22.10
2019-02-28T20:00:20.655Z,23.40
2019-02-28T20:02:49.370Z,22.80
2019-02-28T20:05:18.494Z,23.33
2019-02-28T20:07:46.975Z,23.00
2019-02-28T20:10:23.102Z,22.23
2019-02-28T20:12:51.602Z,20.67
2019-02-28T20:15:22.750Z,21.83
2019-02-28T20:17:51.213Z,22.30
2019-02-28T20:20:28.475Z,22.40
2019-02-28T20:22:56.951Z,22.00
2019-02-28T20:25:25.688Z,21.50
2019-02-28T20:27:54.166Z,20.27
2019-02-28T20:30:24.260Z,20.70
2019-02-28T20:32:53.264Z,22.40
2019-02-28T20:35:26.509Z,21.60
2019-02-28T20:37:52.191Z,22.73
2019-02-28T20:40:28.869Z,21.90
2019-02-28T20:42:57.294Z,22.40
2019-02-28T20:45:25.745Z,23.00
2019-02-28T20:47:54.134Z,24.53
2019-02-28T20:50:34.704Z,24.50
2019-02-28T20:53:03.141Z,24.23
2019-02-28T20:55:31.714Z,23.33
2019-02-28T20:58:00.387Z,22.10
2019-02-28T21:00:28.837Z,20.50
2019-02-28T21:02:57.340Z,21.63
2019-02-28T21:05:26.138Z,23.10
2019-02-28T21:07:56.512Z,23.10
2019-02-28T21:10:24.713Z,22.97
2019-02-28T21:12:53.432Z,23.43
2019-02-28T21:15:21.816Z,24.07
2019-02-28T21:17:50.349Z,25.10
2019-02-28T21:20:18.995Z,25.43
2019-02-28T21:22:47.524Z,25.43
2019-02-28T21:25:17.138Z,25.53
2019-02-28T21:27:45.539Z,26.60
2019-02-28T21:30:22.666Z,27.70
2019-02-28T21:32:51.445Z,26.80
2019-02-28T21:35:20.205Z,26.93
2019-02-28T21:37:49.383Z,26.13
2019-02-28T21:40:19.108Z,27.20
2019-02-28T21:42:47.496Z,25.97
2019-02-28T21:45:21.437Z,25.53
2019-02-28T21:47:49.866Z,24.60
2019-02-28T21:50:18.691Z,25.83
2019-02-28T21:52:47.171Z,25.40
2019-02-28T21:55:16.836Z,24.43
2019-02-28T21:57:45.564Z,24.70
2019-02-28T22:00:16.796Z,25.03
2019-02-28T22:02:45.210Z,23.20
2019-02-28T22:05:14.232Z,22.73
2019-02-28T22:07:44.495Z,22.10
2019-02-28T22:10:14.590Z,22.10
2019-02-28T22:12:43.295Z,22.40
2019-02-28T22:15:17.176Z,20.63
2019-02-28T22:17:45.920Z,21.30
2019-02-28T22:20:15.163Z,21.00
2019-02-28T22:22:43.909Z,20.17
2019-02-28T22:25:14.131Z,22.80
2019-02-28T22:27:42.587Z,21.43
2019-02-28T22:30:32.053Z,20.77
2019-02-28T22:33:05.110Z,20.93
2019-02-28T22:35:35.129Z,20.80
2019-02-28T22:38:03.638Z,19.43
2019-02-28T22:40:32.437Z,20.43
2019-02-28T22:43:00.868Z,19.03
2019-02-28T22:45:29.277Z,18.03
2019-02-28T22:47:57.663Z,17.70
2019-02-28T22:50:26.069Z,17.90
2019-02-28T22:52:54.839Z,17.90
2019-02-28T22:55:23.709Z,18.70
2019-02-28T22:57:52.107Z,17.67
2019-02-28T23:00:24.614Z,16.70
2019-02-28T23:02:53.374Z,17.17
2019-02-28T23:05:21.775Z,16.10
2019-02-28T23:07:50.182Z,15.70
2019-02-28T23:10:18.570Z,16.30
2019-02-28T23:12:47.063Z,16.20
2019-02-28T23:15:15.460Z,15.30
2019-02-28T23:17:44.156Z,15.63
2019-02-28T23:20:12.705Z,14.90
2019-02-28T23:22:41.254Z,15.40
2019-02-28T23:25:09.779Z,14.67
2019-02-28T23:27:38.180Z,15.00
2019-02-28T23:30:29.023Z,14.63
2019-02-28T23:33:00.475Z,13.70
2019-02-28T23:35:32.100Z,13.23
2019-02-28T23:38:00.490Z,13.63
2019-02-28T23:40:29.168Z,13.70
2019-02-28T23:42:57.559Z,15.27
2019-02-28T23:45:26.006Z,15.00
2019-02-28T23:47:54.445Z,16.30
2019-02-28T23:50:22.828Z,15.30
2019-02-28T23:52:51.213Z,16.90
2019-02-28T23:55:19.950Z,15.87
2019-02-28T23:57:48.409Z,15.50
